Time;durP1;ratioP1;P1;durP2;ratioP2;P2;SDS_P1;SDS_P2;PMS_P1;PMS_P2;Temp;Humidity;BMP_temperature;BMP_pressure;BME280_temperature;BME280_humidity;BME280_pressure;Samples;Min_cycle;Max_cycle;Signal;HPM_P1;HPM_P2
2023/06/25 00:01:24;;;;;;;1.90;1.80;;;19.40;99.90;;;;;;5015746;28;20435;-82
2023/06/25 00:03:51;;;;;;;0.50;0.30;;;19.30;99.90;;;;;;5015814;28;20475;-82
2023/06/25 00:06:18;;;;;;;0.50;0.30;;;19.30;99.90;;;;;;5014233;28;20446;-80
2023/06/25 00:08:45;;;;;;;0.50;0.30;;;19.20;99.90;;;;;;5015517;28;20453;-81
2023/06/25 00:11:11;;;;;;;0.50;0.40;;;19.20;99.90;;;;;;5015541;28;20458;-81
2023/06/25 00:13:38;;;;;;;0.50;0.30;;;19.20;99.90;;;;;;5015612;28;20459;-82
2023/06/25 00:16:07;;;;;;;0.50;0.40;;;19.20;99.90;;;;;;5015630;28;20930;-81
2023/06/25 00:18:34;;;;;;;0.50;0.30;;;19.10;99.90;;;;;;5015744;28;20446;-81
2023/06/25 00:21:01;;;;;;;0.50;0.40;;;19.10;99.90;;;;;;5015354;28;20439;-85
2023/06/25 00:23:28;;;;;;;0.50;0.40;;;19.00;99.90;;;;;;5015117;28;20479;-82
2023/06/25 00:25:55;;;;;;;0.50;0.30;;;19.00;99.90;;;;;;5015973;28;20443;-83
2023/06/25 00:28:21;;;;;;;0.50;0.30;;;19.00;99.90;;;;;;5015216;28;20439;-83
2023/06/25 00:30:48;;;;;;;0.50;0.30;;;19.00;99.90;;;;;;5015370;28;20443;-81
2023/06/25 00:33:16;;;;;;;0.50;0.30;;;18.90;99.90;;;;;;5015176;28;20455;-81
2023/06/25 00:35:59;;;;;;;0.50;0.30;;;18.90;99.90;;;;;;5015638;28;20439;-82
2023/06/25 00:38:26;;;;;;;0.50;0.30;;;18.90;99.90;;;;;;5014851;28;20878;-80
2023/06/25 00:40:53;;;;;;;0.50;0.30;;;18.90;99.90;;;;;;5014919;28;20472;-80
2023/06/25 00:43:20;;;;;;;0.50;0.30;;;18.90;99.90;;;;;;5015146;28;20849;-82
2023/06/25 00:45:47;;;;;;;0.50;0.30;;;18.80;99.90;;;;;;5017150;28;20546;-82
2023/06/25 00:48:16;;;;;;;0.50;0.40;;;18.80;99.90;;;;;;5015557;28;20914;-83
2023/06/25 00:50:43;;;;;;;0.50;0.40;;;18.70;99.90;;;;;;5014648;28;20445;-82
2023/06/25 00:53:10;;;;;;;0.50;0.30;;;18.70;99.90;;;;;;5014638;28;20459;-81
2023/06/25 00:55:37;;;;;;;0.50;0.30;;;18.70;99.90;;;;;;5014623;28;20446;-83
2023/06/25 00:58:04;;;;;;;2.00;1.90;;;18.70;99.90;;;;;;5014603;28;20992;-82
2023/06/25 01:00:33;;;;;;;0.50;0.40;;;18.70;99.90;;;;;;5014536;28;21123;-82
2023/06/25 01:03:07;;;;;;;0.50;0.30;;;18.60;99.90;;;;;;5014884;28;20506;-81
2023/06/25 01:05:41;;;;;;;0.50;0.30;;;18.60;99.90;;;;;;5014416;28;20457;-82
2023/06/25 01:08:09;;;;;;;0.50;0.40;;;18.60;99.90;;;;;;5015739;28;20891;-82
2023/06/25 01:10:36;;;;;;;0.50;0.30;;;18.60;99.90;;;;;;5007420;28;20442;-81
2023/06/25 01:13:03;;;;;;;0.50;0.30;;;18.60;99.90;;;;;;5014485;28;20462;-81
2023/06/25 01:15:30;;;;;;;0.50;0.30;;;18.60;99.90;;;;;;5014872;28;20530;-82
2023/06/25 01:17:57;;;;;;;0.50;0.30;;;18.60;99.90;;;;;;5014331;28;20807;-83
2023/06/25 01:20:26;;;;;;;0.50;0.30;;;18.50;99.90;;;;;;5014999;28;20447;-81
2023/06/25 01:22:55;;;;;;;0.50;0.30;;;18.50;99.90;;;;;;5014189;28;20459;-84
2023/06/25 01:25:21;;;;;;;0.50;0.30;;;18.50;99.90;;;;;;5017527;28;20443;-79
2023/06/25 01:27:49;;;;;;;0.50;0.30;;;18.50;99.90;;;;;;5021843;28;20449;-82
2023/06/25 01:30:15;;;;;;;0.50;0.30;;;18.50;99.90;;;;;;5017039;28;20477;-83
2023/06/25 01:32:43;;;;;;;0.50;0.40;;;18.40;99.90;;;;;;5017422;28;20532;-84
2023/06/25 01:35:11;;;;;;;0.50;0.30;;;18.40;99.90;;;;;;5018063;28;20516;-84
2023/06/25 01:37:38;;;;;;;0.50;0.40;;;18.40;99.90;;;;;;5010307;28;20459;-83
2023/06/25 01:40:08;;;;;;;0.50;0.40;;;18.40;99.90;;;;;;5018353;28;20515;-83
2023/06/25 01:42:35;;;;;;;0.50;0.40;;;18.40;99.90;;;;;;5017822;28;20458;-83
2023/06/25 01:45:02;;;;;;;0.50;0.40;;;18.30;99.90;;;;;;5016913;28;20483;-83
2023/06/25 01:47:28;;;;;;;0.50;0.40;;;18.30;99.90;;;;;;5015067;28;20449;-82
2023/06/25 01:49:55;;;;;;;0.50;0.30;;;18.30;99.90;;;;;;5014328;28;20445;-82
2023/06/25 01:52:22;;;;;;;0.50;0.30;;;18.30;99.90;;;;;;5014745;28;20465;-80
2023/06/25 01:54:49;;;;;;;1.17;1.17;;;18.20;99.90;;;;;;5014422;28;20466;-81
2023/06/25 01:57:17;;;;;;;0.87;0.87;;;18.20;99.90;;;;;;5015156;28;20452;-83
2023/06/25 01:59:44;;;;;;;0.50;0.30;;;18.20;99.90;;;;;;5014020;28;20977;-82
2023/06/25 02:02:11;;;;;;;0.50;0.30;;;18.20;99.90;;;;;;5014319;28;20469;-82
2023/06/25 02:04:37;;;;;;;0.50;0.40;;;18.10;99.90;;;;;;5005985;28;20471;-82
2023/06/25 02:07:05;;;;;;;0.50;0.30;;;18.10;99.90;;;;;;5014064;28;20453;-82
2023/06/25 02:09:32;;;;;;;0.50;0.37;;;18.10;99.90;;;;;;5013848;28;20442;-82
2023/06/25 02:11:59;;;;;;;0.50;0.40;;;18.00;99.90;;;;;;5014414;28;20474;-83
2023/06/25 02:14:27;;;;;;;0.90;0.90;;;18.00;99.90;;;;;;5014651;28;20435;-79
2023/06/25 02:16:54;;;;;;;0.50;0.40;;;18.00;99.90;;;;;;5015004;28;20450;-82
2023/06/25 02:19:20;;;;;;;0.50;0.37;;;18.00;99.90;;;;;;5012405;28;20711;-82
2023/06/25 02:21:47;;;;;;;0.50;0.37;;;18.00;99.90;;;;;;5012534;28;20462;-83
2023/06/25 02:24:14;;;;;;;0.50;0.30;;;18.00;99.90;;;;;;5012658;28;20466;-81
2023/06/25 02:26:41;;;;;;;0.60;0.50;;;18.00;99.90;;;;;;5012721;28;20434;-82
2023/06/25 02:29:08;;;;;;;0.50;0.30;;;17.90;99.90;;;;;;5012744;28;20450;-82
2023/06/25 02:31:36;;;;;;;0.50;0.40;;;17.90;99.90;;;;;;5012044;28;20439;-82
2023/06/25 02:34:03;;;;;;;0.50;0.40;;;17.80;99.90;;;;;;5012480;28;20952;-82
2023/06/25 02:36:30;;;;;;;0.50;0.40;;;17.80;99.90;;;;;;5012285;28;20977;-82
2023/06/25 02:38:57;;;;;;;0.50;0.40;;;17.70;99.90;;;;;;5012173;28;20822;-82
2023/06/25 02:41:23;;;;;;;0.50;0.40;;;17.70;99.90;;;;;;5011994;28;20451;-79
2023/06/25 02:43:50;;;;;;;0.50;0.30;;;17.70;99.90;;;;;;5012344;28;21001;-83
2023/06/25 02:46:17;;;;;;;0.50;0.40;;;17.70;99.90;;;;;;5012148;28;20439;-82
2023/06/25 02:48:45;;;;;;;0.50;0.40;;;17.60;99.90;;;;;;5012282;28;20450;-82
2023/06/25 02:51:12;;;;;;;0.50;0.40;;;17.60;99.90;;;;;;5012195;28;20443;-82
2023/06/25 02:53:39;;;;;;;2.00;1.60;;;17.60;99.90;;;;;;5012253;28;20970;-83
2023/06/25 02:56:06;;;;;;;0.50;0.30;;;17.60;99.90;;;;;;5012312;28;20446;-82
2023/06/25 02:58:32;;;;;;;0.50;0.40;;;17.60;99.90;;;;;;5011663;28;20447;-80
2023/06/25 03:00:59;;;;;;;0.50;0.37;;;17.50;99.90;;;;;;5012250;28;20447;-82
2023/06/25 03:03:26;;;;;;;0.50;0.40;;;17.50;99.90;;;;;;5012074;28;20534;-80
2023/06/25 03:05:54;;;;;;;0.50;0.40;;;17.50;99.90;;;;;;5012429;28;20441;-80
2023/06/25 03:08:21;;;;;;;0.50;0.40;;;17.50;99.90;;;;;;5011993;28;20443;-82
2023/06/25 03:10:48;;;;;;;0.50;0.30;;;17.50;99.90;;;;;;5011863;28;20905;-82
2023/06/25 03:13:15;;;;;;;0.50;0.40;;;17.50;99.90;;;;;;5012005;28;20834;-81
2023/06/25 03:15:41;;;;;;;2.10;1.73;;;17.50;99.90;;;;;;5003972;28;20447;-82
2023/06/25 03:18:08;;;;;;;0.50;0.40;;;17.50;99.90;;;;;;5011887;28;20537;-83
2023/06/25 03:20:35;;;;;;;0.50;0.30;;;17.50;99.90;;;;;;5012096;28;20439;-78
2023/06/25 03:23:03;;;;;;;0.50;0.30;;;17.40;99.90;;;;;;5012005;28;20486;-83
2023/06/25 03:25:30;;;;;;;0.50;0.30;;;17.40;99.90;;;;;;5011576;28;20533;-81
2023/06/25 03:27:57;;;;;;;0.50;0.40;;;17.40;99.90;;;;;;5011974;28;20443;-84
2023/06/25 03:30:24;;;;;;;0.50;0.40;;;17.40;99.90;;;;;;5011710;28;20445;-82
2023/06/25 03:32:50;;;;;;;0.50;0.30;;;17.40;99.90;;;;;;5011711;28;20459;-81
2023/06/25 03:35:18;;;;;;;0.50;0.30;;;17.40;99.90;;;;;;5011543;28;20434;-82
2023/06/25 03:37:45;;;;;;;0.50;0.30;;;17.40;99.90;;;;;;5011849;28;20439;-83
2023/06/25 03:40:13;;;;;;;0.50;0.37;;;17.40;99.90;;;;;;5012375;28;20442;-81
2023/06/25 03:42:40;;;;;;;0.50;0.40;;;17.50;99.90;;;;;;5014486;28;20458;-82
2023/06/25 03:45:08;;;;;;;3.63;3.43;;;17.50;99.90;;;;;;5014670;28;20480;-84
2023/06/25 03:47:35;;;;;;;0.50;0.40;;;17.50;99.90;;;;;;5014839;28;20446;-82
2023/06/25 03:50:01;;;;;;;0.50;0.40;;;17.50;99.90;;;;;;5014728;28;20445;-82
2023/06/25 03:52:28;;;;;;;0.50;0.30;;;17.50;99.90;;;;;;5014793;28;20469;-81
2023/06/25 03:54:55;;;;;;;0.50;0.40;;;17.50;99.90;;;;;;5015036;28;20442;-81
2023/06/25 03:57:23;;;;;;;0.50;0.40;;;17.50;99.90;;;;;;5014702;28;20447;-81
2023/06/25 03:59:50;;;;;;;0.60;0.60;;;17.50;99.90;;;;;;5014602;28;20439;-81
2023/06/25 04:02:17;;;;;;;0.50;0.40;;;17.50;99.90;;;;;;5014570;28;20531;-82
2023/06/25 04:04:43;;;;;;;0.50;0.40;;;17.60;99.90;;;;;;5014130;28;20557;-82
2023/06/25 04:07:10;;;;;;;0.50;0.30;;;17.60;99.90;;;;;;5014667;28;20813;-83
2023/06/25 04:09:37;;;;;;;0.50;0.40;;;17.60;99.90;;;;;;5014040;28;20954;-81
2023/06/25 04:12:04;;;;;;;0.50;0.30;;;17.60;99.90;;;;;;5014246;28;20463;-81
2023/06/25 04:14:32;;;;;;;0.50;0.40;;;17.70;99.90;;;;;;5014088;28;20442;-82
2023/06/25 04:16:59;;;;;;;0.50;0.40;;;17.70;99.90;;;;;;5014226;28;20450;-81
2023/06/25 04:19:26;;;;;;;0.50;0.40;;;17.80;99.90;;;;;;5014160;28;20443;-82
2023/06/25 04:21:53;;;;;;;0.50;0.40;;;17.80;99.90;;;;;;5014357;28;20455;-83
2023/06/25 04:24:19;;;;;;;0.50;0.40;;;17.80;99.90;;;;;;5014178;28;20497;-82
2023/06/25 04:26:46;;;;;;;0.50;0.30;;;17.90;99.90;;;;;;5014153;28;20441;-82
2023/06/25 04:29:13;;;;;;;0.50;0.30;;;17.90;99.90;;;;;;5013906;28;20439;-82
2023/06/25 04:31:41;;;;;;;0.50;0.30;;;17.90;99.90;;;;;;5013883;28;20434;-82
2023/06/25 04:34:08;;;;;;;0.60;0.50;;;18.00;99.90;;;;;;5014110;28;20439;-81
2023/06/25 04:36:35;;;;;;;0.50;0.30;;;18.00;99.90;;;;;;5014281;28;20788;-81
2023/06/25 04:39:02;;;;;;;0.50;0.30;;;18.10;99.90;;;;;;5013658;28;20447;-82
2023/06/25 04:41:29;;;;;;;0.50;0.40;;;18.10;99.90;;;;;;5013791;28;20442;-81
2023/06/25 04:43:55;;;;;;;0.50;0.30;;;18.10;99.90;;;;;;5013997;28;20522;-81
2023/06/25 04:46:22;;;;;;;0.50;0.30;;;18.20;99.90;;;;;;5013717;28;20534;-82
2023/06/25 04:48:51;;;;;;;0.50;0.30;;;18.20;99.90;;;;;;5013990;28;20806;-81
2023/06/25 04:51:17;;;;;;;0.50;0.30;;;18.30;99.90;;;;;;5013199;28;20439;-81
2023/06/25 04:53:44;;;;;;;0.50;0.40;;;18.30;99.90;;;;;;5013432;28;20829;-81
2023/06/25 04:56:11;;;;;;;0.50;0.30;;;18.40;99.90;;;;;;5013718;28;20443;-81
2023/06/25 04:58:38;;;;;;;0.50;0.30;;;18.50;99.90;;;;;;5013575;28;20454;-81
2023/06/25 05:01:05;;;;;;;0.50;0.40;;;18.50;99.90;;;;;;5013677;28;21243;-81
2023/06/25 05:03:31;;;;;;;0.50;0.40;;;18.60;99.90;;;;;;5013746;28;20517;-81
2023/06/25 05:06:00;;;;;;;0.50;0.30;;;18.70;99.90;;;;;;5013373;28;20509;-81
2023/06/25 05:08:27;;;;;;;0.50;0.40;;;18.80;99.90;;;;;;5013242;28;20842;-81
2023/06/25 05:10:54;;;;;;;0.50;0.30;;;18.90;99.90;;;;;;5023054;28;20439;-84
2023/06/25 05:13:21;;;;;;;0.50;0.30;;;18.90;99.90;;;;;;5017424;28;20455;-82
2023/06/25 05:15:47;;;;;;;0.90;0.70;;;19.10;99.90;;;;;;5017168;28;20981;-84
2023/06/25 05:18:14;;;;;;;0.50;0.30;;;19.10;99.90;;;;;;5017476;28;20450;-83
2023/06/25 05:20:41;;;;;;;0.50;0.40;;;19.20;99.90;;;;;;5017234;28;20984;-82
2023/06/25 05:23:10;;;;;;;0.50;0.37;;;19.30;99.90;;;;;;5016293;28;20465;-81
2023/06/25 05:25:37;;;;;;;0.50;0.40;;;19.40;99.90;;;;;;5014546;28;20486;-81
2023/06/25 05:28:04;;;;;;;0.50;0.40;;;19.50;99.90;;;;;;5013861;28;20443;-81
2023/06/25 05:30:31;;;;;;;0.50;0.30;;;19.60;99.90;;;;;;5013201;28;20443;-82
2023/06/25 05:32:58;;;;;;;0.50;0.30;;;19.70;99.90;;;;;;5013055;28;20551;-81
2023/06/25 05:35:28;;;;;;;0.50;0.30;;;19.80;99.90;;;;;;5012998;28;20443;-81
2023/06/25 05:37:55;;;;;;;0.50;0.30;;;19.90;99.90;;;;;;5012913;28;20447;-82
2023/06/25 05:40:23;;;;;;;1.37;1.27;;;20.00;99.90;;;;;;5012807;28;20439;-80
2023/06/25 05:42:50;;;;;;;0.50;0.30;;;20.20;99.90;;;;;;5005059;28;20469;-81
2023/06/25 05:45:17;;;;;;;0.50;0.30;;;20.30;99.90;;;;;;5013099;28;20475;-79
2023/06/25 05:47:44;;;;;;;0.50;0.30;;;20.50;99.90;;;;;;5012774;28;20947;-81
2023/06/25 05:50:11;;;;;;;0.80;0.50;;;20.60;99.90;;;;;;5012803;28;20439;-81
2023/06/25 05:52:38;;;;;;;0.50;0.30;;;20.80;99.90;;;;;;5012552;28;20843;-81
2023/06/25 05:55:05;;;;;;;0.50;0.40;;;20.90;99.90;;;;;;5012683;28;20435;-81
2023/06/25 05:57:34;;;;;;;0.73;0.67;;;21.10;99.90;;;;;;5013055;28;20566;-79
2023/06/25 06:00:00;;;;;;;0.60;0.50;;;21.20;99.90;;;;;;5012633;28;21002;-82
2023/06/25 06:02:27;;;;;;;0.50;0.30;;;21.40;99.90;;;;;;5012769;28;20459;-81
2023/06/25 06:04:54;;;;;;;0.50;0.30;;;21.60;99.90;;;;;;5012670;28;20474;-81
2023/06/25 06:07:21;;;;;;;0.50;0.30;;;21.80;99.90;;;;;;5012765;28;20439;-81
2023/06/25 06:09:47;;;;;;;0.50;0.30;;;21.90;99.90;;;;;;5012285;28;20450;-81
2023/06/25 06:12:14;;;;;;;1.40;1.20;;;22.10;99.90;;;;;;5012677;28;20465;-81
2023/06/25 06:14:43;;;;;;;0.50;0.30;;;22.30;99.90;;;;;;5012589;28;20521;-82
2023/06/25 06:17:10;;;;;;;2.67;2.43;;;22.50;99.90;;;;;;5012699;28;20446;-81
2023/06/25 06:19:37;;;;;;;0.50;0.30;;;22.60;99.90;;;;;;5011956;28;20446;-81
2023/06/25 06:22:04;;;;;;;0.60;0.50;;;22.70;99.90;;;;;;5012449;28;20459;-81
2023/06/25 06:24:31;;;;;;;0.50;0.30;;;22.80;99.90;;;;;;5011994;28;20478;-82
2023/06/25 06:26:58;;;;;;;0.50;0.30;;;23.10;99.90;;;;;;5012293;28;20442;-81
2023/06/25 06:29:25;;;;;;;0.50;0.30;;;23.30;99.90;;;;;;5012592;28;20454;-81
2023/06/25 06:31:53;;;;;;;1.57;0.53;;;23.50;99.90;;;;;;5011979;28;20459;-81
2023/06/25 06:34:20;;;;;;;0.60;0.50;;;23.70;99.90;;;;;;5012191;28;20819;-82
2023/06/25 06:36:46;;;;;;;0.50;0.40;;;24.00;99.90;;;;;;5012159;28;20819;-81
2023/06/25 06:39:14;;;;;;;0.50;0.40;;;24.20;99.90;;;;;;5012612;28;20438;-81
2023/06/25 06:41:41;;;;;;;0.50;0.30;;;24.50;99.90;;;;;;5011837;28;20509;-81
2023/06/25 06:44:13;;;;;;;0.80;0.60;;;24.70;99.90;;;;;;5012271;28;20442;-82
2023/06/25 06:46:40;;;;;;;0.50;0.40;;;24.80;99.90;;;;;;5035383;23;20842;-82
2023/06/25 06:49:09;;;;;;;0.50;0.40;;;25.10;99.90;;;;;;5000817;28;20467;-81
2023/06/25 06:51:37;;;;;;;1.60;1.07;;;26.00;99.90;;;;;;4989076;28;20888;-80
2023/06/25 06:54:04;;;;;;;0.50;0.40;;;26.10;99.90;;;;;;4989243;28;20444;-81
2023/06/25 06:56:31;;;;;;;1.00;1.00;;;26.60;99.90;;;;;;4988454;28;20500;-79
2023/06/25 06:58:57;;;;;;;1.67;1.57;;;27.20;99.90;;;;;;4981443;28;20508;-81
2023/06/25 07:01:24;;;;;;;0.50;0.50;;;28.10;99.90;;;;;;4988723;28;20437;-81
2023/06/25 07:03:51;;;;;;;0.50;0.30;;;28.20;99.90;;;;;;4989682;28;20448;-85
2023/06/25 07:06:20;;;;;;;0.60;0.60;;;28.10;99.90;;;;;;4983612;28;20481;-84
2023/06/25 07:08:47;;;;;;;0.50;0.40;;;27.90;99.90;;;;;;4988507;28;20464;-83
2023/06/25 07:11:16;;;;;;;0.50;0.40;;;28.20;99.90;;;;;;4981906;28;20508;-85
2023/06/25 07:13:43;;;;;;;0.80;0.60;;;28.70;99.90;;;;;;4989289;28;20513;-84
2023/06/25 07:16:10;;;;;;;0.67;0.67;;;28.90;96.90;;;;;;4992140;28;20441;-82
2023/06/25 07:18:37;;;;;;;0.70;0.70;;;29.10;98.00;;;;;;4992036;28;20464;-80
2023/06/25 07:21:05;;;;;;;0.70;0.53;;;29.90;95.00;;;;;;4992769;28;20443;-79
2023/06/25 07:23:33;;;;;;;0.50;0.30;;;30.40;93.70;;;;;;4992795;28;20456;-78
2023/06/25 07:26:00;;;;;;;0.80;0.50;;;30.90;90.40;;;;;;4991947;28;20478;-83
2023/06/25 07:28:27;;;;;;;0.50;0.30;;;31.10;86.00;;;;;;4992730;28;20500;-82
2023/06/25 07:30:54;;;;;;;0.90;0.67;;;31.30;85.40;;;;;;4992195;28;20438;-82
2023/06/25 07:33:20;;;;;;;0.50;0.33;;;31.60;81.40;;;;;;4987031;28;20449;-79
2023/06/25 07:35:47;;;;;;;0.60;0.57;;;31.70;82.00;;;;;;4983547;28;20531;-79
2023/06/25 07:38:14;;;;;;;0.50;0.43;;;32.30;79.00;;;;;;4984195;28;20465;-81
2023/06/25 07:40:42;;;;;;;0.50;0.30;;;32.40;78.90;;;;;;4992135;28;20451;-82
2023/06/25 07:43:09;;;;;;;1.20;1.20;;;32.50;75.00;;;;;;4992592;28;20452;-81
2023/06/25 07:45:36;;;;;;;0.50;0.30;;;32.80;73.80;;;;;;4992253;28;20491;-81
2023/06/25 07:48:02;;;;;;;0.50;0.40;;;32.40;80.70;;;;;;4983546;28;20472;-81
2023/06/25 07:50:29;;;;;;;0.50;0.30;;;33.10;73.20;;;;;;4984253;28;20521;-79
2023/06/25 07:52:56;;;;;;;0.50;0.40;;;33.20;69.90;;;;;;4991980;28;20422;-83
2023/06/25 07:55:23;;;;;;;0.40;0.30;;;33.50;68.60;;;;;;4985083;28;20437;-80
2023/06/25 07:57:51;;;;;;;0.40;0.30;;;33.50;71.20;;;;;;4991099;28;20461;-82
2023/06/25 08:00:18;;;;;;;0.50;0.30;;;33.60;69.60;;;;;;4991585;28;20516;-82
2023/06/25 08:02:45;;;;;;;0.50;0.30;;;34.00;69.10;;;;;;4991407;28;20437;-82
2023/06/25 08:05:11;;;;;;;0.90;0.90;;;33.80;67.30;;;;;;4992438;28;20468;-82
2023/06/25 08:07:38;;;;;;;0.57;0.50;;;34.20;65.40;;;;;;4991772;28;20463;-81
2023/06/25 08:10:06;;;;;;;0.50;0.50;;;33.60;62.80;;;;;;4983886;28;20462;-82
2023/06/25 08:12:33;;;;;;;0.40;0.30;;;33.50;67.10;;;;;;4983746;28;20449;-82
2023/06/25 08:15:01;;;;;;;0.50;0.43;;;33.80;63.20;;;;;;4984070;28;20433;-82
2023/06/25 08:17:28;;;;;;;2.10;0.93;;;33.70;65.60;;;;;;4991855;28;20473;-78
2023/06/25 08:19:55;;;;;;;0.80;0.77;;;33.70;61.50;;;;;;4991361;28;20531;-81
2023/06/25 08:22:21;;;;;;;0.50;0.40;;;33.20;63.40;;;;;;4991758;28;20440;-83
2023/06/25 08:24:48;;;;;;;0.40;0.30;;;33.50;61.80;;;;;;4991136;28;20451;-81
2023/06/25 08:27:15;;;;;;;0.50;0.50;;;33.80;64.00;;;;;;4990494;28;20528;-82
2023/06/25 08:29:42;;;;;;;0.40;0.30;;;33.30;64.00;;;;;;4990425;28;20512;-82
2023/06/25 08:32:10;;;;;;;0.77;0.77;;;33.80;68.30;;;;;;4987083;28;20446;-81
2023/06/25 08:34:38;;;;;;;0.87;0.87;;;34.20;60.50;;;;;;4987758;28;20441;-81
2023/06/25 08:37:05;;;;;;;0.80;0.50;;;33.90;59.10;;;;;;4986108;28;20481;-81
2023/06/25 08:39:32;;;;;;;0.40;0.30;;;33.80;59.30;;;;;;4986943;28;20497;-81
2023/06/25 08:41:59;;;;;;;1.03;0.93;;;34.10;61.70;;;;;;4990703;28;20467;-79
2023/06/25 08:44:26;;;;;;;0.43;0.37;;;34.20;58.10;;;;;;4991209;28;20446;-81
2023/06/25 08:46:55;;;;;;;0.50;0.50;;;34.50;60.40;;;;;;4982268;28;21058;-82
2023/06/25 08:49:26;;;;;;;0.50;0.50;;;34.80;57.90;;;;;;4989668;28;20441;-81
2023/06/25 08:51:55;;;;;;;0.73;0.73;;;34.80;58.90;;;;;;4990000;28;20450;-82
2023/06/25 08:54:22;;;;;;;0.50;0.40;;;34.80;58.10;;;;;;4990780;28;20452;-81
2023/06/25 08:56:49;;;;;;;0.70;0.70;;;35.10;57.70;;;;;;4990428;28;22602;-82
2023/06/25 08:59:16;;;;;;;0.40;0.30;;;35.70;57.40;;;;;;4990577;28;20444;-82
2023/06/25 09:01:43;;;;;;;0.50;0.40;;;36.00;61.90;;;;;;4990552;28;20446;-81
2023/06/25 09:04:10;;;;;;;0.50;0.40;;;35.80;54.80;;;;;;4990537;28;20449;-82
2023/06/25 09:06:40;;;;;;;0.40;0.30;;;35.60;55.40;;;;;;4990443;28;20487;-80
2023/06/25 09:09:09;;;;;;;0.47;0.40;;;36.00;62.10;;;;;;4991062;28;20451;-80
2023/06/25 09:11:39;;;;;;;0.40;0.30;;;36.30;56.20;;;;;;4990054;28;20451;-83
2023/06/25 09:14:06;;;;;;;0.40;0.40;;;36.20;56.10;;;;;;4983449;28;20443;-81
2023/06/25 09:16:33;;;;;;;1.00;0.90;;;36.30;56.50;;;;;;4982841;28;20470;-81
2023/06/25 09:19:01;;;;;;;0.40;0.30;;;36.50;53.40;;;;;;4987246;28;20449;-83
2023/06/25 09:21:38;;;;;;;0.40;0.30;;;36.50;55.80;;;;;;4985932;28;20448;-78
2023/06/25 09:24:14;;;;;;;0.87;0.87;;;36.50;52.30;;;;;;4982399;28;20451;-82
2023/06/25 09:26:45;;;;;;;0.50;0.43;;;36.10;53.70;;;;;;4990000;28;20527;-83
2023/06/25 09:29:13;;;;;;;0.40;0.30;;;36.00;55.10;;;;;;4990358;28;20517;-81
2023/06/25 09:31:42;;;;;;;0.57;0.30;;;36.20;52.90;;;;;;4989777;28;20514;-81
2023/06/25 09:34:08;;;;;;;1.47;1.13;;;36.40;53.70;;;;;;4986796;28;20446;-82
2023/06/25 09:36:36;;;;;;;0.77;0.77;;;36.70;53.00;;;;;;4986624;28;21017;-82
2023/06/25 09:39:04;;;;;;;0.93;0.93;;;36.90;53.40;;;;;;4981557;28;20441;-82
2023/06/25 09:41:34;;;;;;;0.40;0.30;;;36.80;54.00;;;;;;4989642;28;20469;-81
2023/06/25 09:44:03;;;;;;;1.70;1.60;;;37.10;53.30;;;;;;4990142;28;20447;-83
2023/06/25 09:46:33;;;;;;;0.40;0.30;;;37.60;54.10;;;;;;4989949;28;20544;-79
2023/06/25 09:49:01;;;;;;;1.17;0.97;;;38.10;52.90;;;;;;4979438;28;20434;-83
2023/06/25 09:51:32;;;;;;;0.50;0.50;;;38.10;50.90;;;;;;4977663;28;20460;-83
2023/06/25 09:54:03;;;;;;;0.50;0.40;;;37.60;50.90;;;;;;4989658;28;20564;-82
2023/06/25 09:56:34;;;;;;;0.50;0.40;;;37.40;51.30;;;;;;4990062;28;20434;-80
2023/06/25 09:59:01;;;;;;;0.40;0.30;;;37.10;49.90;;;;;;4989425;28;20440;-81
2023/06/25 10:01:28;;;;;;;0.90;0.90;;;36.70;50.40;;;;;;4983064;28;20448;-81
2023/06/25 10:03:55;;;;;;;0.70;0.70;;;36.80;52.60;;;;;;4988064;28;20436;-81
2023/06/25 10:06:22;;;;;;;0.60;0.60;;;36.60;51.60;;;;;;4989524;28;20496;-82
2023/06/25 10:08:50;;;;;;;0.40;0.30;;;36.30;52.20;;;;;;4980883;28;20465;-83
2023/06/25 10:11:17;;;;;;;0.50;0.50;;;36.50;54.00;;;;;;4984835;28;20451;-81
2023/06/25 10:13:45;;;;;;;0.70;0.70;;;37.10;51.90;;;;;;4986761;28;20448;-80
2023/06/25 10:16:18;;;;;;;0.40;0.33;;;36.90;52.20;;;;;;4985928;28;20511;-82
2023/06/25 10:18:46;;;;;;;0.40;0.30;;;37.10;56.30;;;;;;4985231;28;20471;-80
2023/06/25 10:21:19;;;;;;;0.60;0.50;;;37.30;52.60;;;;;;4989174;28;20529;-81
2023/06/25 10:23:55;;;;;;;0.40;0.30;;;36.60;51.60;;;;;;4988971;28;20477;-83
2023/06/25 10:26:27;;;;;;;0.60;0.50;;;36.10;53.20;;;;;;4989728;28;20477;-81
2023/06/25 10:28:55;;;;;;;0.40;0.37;;;36.60;54.60;;;;;;4988305;28;20978;-82
2023/06/25 10:31:22;;;;;;;0.40;0.30;;;37.70;54.80;;;;;;4989347;28;20518;-81
2023/06/25 10:33:50;;;;;;;1.13;0.83;;;37.70;50.70;;;;;;4988564;28;20470;-82
2023/06/25 10:36:24;;;;;;;0.50;0.40;;;37.30;50.80;;;;;;4988923;28;20506;-80
2023/06/25 10:38:51;;;;;;;0.40;0.40;;;37.30;51.30;;;;;;4988933;28;20461;-82
2023/06/25 10:41:26;;;;;;;0.63;0.63;;;37.60;52.00;;;;;;4989473;28;20502;-79
2023/06/25 10:43:53;;;;;;;0.60;0.50;;;37.40;52.00;;;;;;4987279;28;20976;-82
2023/06/25 10:46:28;;;;;;;0.80;0.77;;;37.60;52.80;;;;;;4982481;28;20483;-82
2023/06/25 10:48:55;;;;;;;0.60;0.60;;;36.70;50.90;;;;;;4988797;28;20474;-82
2023/06/25 10:51:21;;;;;;;0.43;0.33;;;36.60;53.70;;;;;;4992272;28;20544;-81
2023/06/25 10:53:48;;;;;;;0.97;0.83;;;36.50;53.30;;;;;;4993286;28;20451;-81
2023/06/25 10:56:15;;;;;;;1.93;1.83;;;37.00;50.20;;;;;;4993195;28;20559;-82
2023/06/25 10:58:44;;;;;;;0.40;0.30;;;37.30;54.20;;;;;;4991945;28;20442;-79
2023/06/25 11:01:11;;;;;;;1.17;0.70;;;37.30;53.80;;;;;;4985452;28;20469;-82
2023/06/25 11:03:39;;;;;;;0.60;0.60;;;38.00;55.20;;;;;;4993205;28;20452;-82
2023/06/25 11:06:06;;;;;;;1.37;1.27;;;38.70;50.20;;;;;;4992248;28;20487;-82
2023/06/25 11:08:32;;;;;;;0.40;0.30;;;38.60;49.10;;;;;;4991816;28;20469;-80
2023/06/25 11:11:00;;;;;;;0.60;0.60;;;38.60;50.60;;;;;;4991976;28;20498;-80
2023/06/25 11:13:27;;;;;;;2.10;2.00;;;38.50;51.00;;;;;;4993218;28;20533;-81
2023/06/25 11:15:55;;;;;;;1.03;1.03;;;39.00;51.60;;;;;;4982939;28;20542;-82
2023/06/25 11:18:22;;;;;;;0.70;0.57;;;38.90;48.90;;;;;;4986778;28;20496;-82
2023/06/25 11:20:50;;;;;;;0.40;0.40;;;39.10;48.50;;;;;;4991905;28;20442;-83
2023/06/25 11:23:17;;;;;;;0.50;0.47;;;39.40;48.90;;;;;;4985950;28;20451;-80
2023/06/25 11:25:44;;;;;;;0.50;0.40;;;39.80;49.30;;;;;;4984347;28;20452;-80
2023/06/25 11:28:13;;;;;;;0.40;0.30;;;40.00;50.40;;;;;;4991930;28;20468;-83
2023/06/25 11:30:41;;;;;;;0.83;0.83;;;40.10;48.20;;;;;;4981100;28;20462;-79
2023/06/25 11:33:10;;;;;;;0.40;0.30;;;40.20;48.00;;;;;;4984052;28;20435;-82
2023/06/25 11:35:37;;;;;;;1.43;1.30;;;40.20;48.80;;;;;;4983799;28;20443;-80
2023/06/25 11:38:05;;;;;;;0.80;0.40;;;40.20;48.50;;;;;;4984145;28;20479;-80
2023/06/25 11:40:34;;;;;;;0.70;0.60;;;40.10;48.70;;;;;;4980799;28;20446;-80
2023/06/25 11:43:01;;;;;;;0.40;0.30;;;39.40;48.00;;;;;;4983056;28;20453;-81
2023/06/25 11:45:40;;;;;;;1.30;1.20;;;39.20;48.30;;;;;;4981149;28;20477;-82
2023/06/25 11:48:13;;;;;;;0.50;0.40;;;39.00;46.50;;;;;;4982570;28;20472;-82
2023/06/25 11:50:40;;;;;;;0.77;0.60;;;38.10;49.60;;;;;;4976432;28;20452;-81
2023/06/25 11:53:08;;;;;;;0.50;0.47;;;37.20;48.80;;;;;;4981612;28;20454;-82
2023/06/25 11:55:35;;;;;;;0.97;0.47;;;36.70;50.50;;;;;;4978205;28;20437;-83
2023/06/25 11:58:01;;;;;;;0.50;0.40;;;37.30;52.30;;;;;;4989896;28;20462;-79
2023/06/25 12:00:28;;;;;;;0.40;0.30;;;38.20;49.50;;;;;;4985095;28;20841;-82
2023/06/25 12:02:55;;;;;;;0.90;0.90;;;38.60;49.80;;;;;;4987506;28;20497;-82
2023/06/25 12:05:22;;;;;;;0.40;0.40;;;38.50;49.80;;;;;;4991057;28;20555;-82
2023/06/25 12:07:49;;;;;;;1.23;1.13;;;38.80;49.50;;;;;;4983134;28;21261;-80
2023/06/25 12:10:17;;;;;;;0.67;0.67;;;39.10;46.90;;;;;;4990444;28;20443;-81
2023/06/25 12:12:45;;;;;;;0.40;0.40;;;38.90;47.30;;;;;;4990358;28;20438;-81
2023/06/25 12:15:12;;;;;;;0.43;0.37;;;39.10;51.70;;;;;;4990915;28;20519;-83
2023/06/25 12:17:39;;;;;;;1.03;1.03;;;39.80;49.00;;;;;;4991052;28;20534;-80
2023/06/25 12:20:06;;;;;;;0.50;0.50;;;39.60;47.00;;;;;;4990370;28;20510;-83
2023/06/25 12:22:34;;;;;;;0.40;0.30;;;39.50;47.60;;;;;;4990476;28;20502;-82
2023/06/25 12:25:00;;;;;;;0.40;0.30;;;39.40;49.10;;;;;;4991105;28;20453;-82
2023/06/25 12:27:32;;;;;;;0.50;0.40;;;39.50;47.80;;;;;;4990213;28;20484;-82
2023/06/25 12:29:59;;;;;;;0.40;0.30;;;39.60;48.80;;;;;;4988193;28;20471;-82
2023/06/25 12:32:26;;;;;;;0.40;0.30;;;39.80;47.20;;;;;;4983736;28;20549;-81
2023/06/25 12:34:53;;;;;;;3.13;0.73;;;39.50;46.80;;;;;;4990301;28;20449;-81
2023/06/25 12:37:19;;;;;;;1.13;0.97;;;39.30;46.40;;;;;;4990409;28;20567;-82
2023/06/25 12:39:48;;;;;;;0.40;0.30;;;39.10;47.10;;;;;;4990150;28;20514;-81
2023/06/25 12:42:15;;;;;;;0.40;0.30;;;39.20;46.80;;;;;;4981566;28;20446;-82
2023/06/25 12:44:43;;;;;;;0.40;0.30;;;39.60;47.60;;;;;;4990761;28;20454;-78
2023/06/25 12:47:09;;;;;;;0.83;0.50;;;39.70;47.10;;;;;;4989598;28;20532;-82
2023/06/25 12:49:36;;;;;;;0.50;0.40;;;38.80;46.40;;;;;;5057681;23;20484;-81